createdAt,value
2022-09-15T00:01:52.138Z,64.17
2022-09-15T00:04:18.901Z,64.95
2022-09-15T00:06:45.441Z,64.31
2022-09-15T00:09:12.013Z,64.54
2022-09-15T00:11:39.333Z,64.44
2022-09-15T00:14:07.369Z,64.66
2022-09-15T00:16:34.596Z,64.69
2022-09-15T00:19:01.991Z,64.82
2022-09-15T00:21:34.886Z,64.88
2022-09-15T00:24:02.201Z,64.95
2022-09-15T00:26:30.015Z,65.06
2022-09-15T00:28:58.322Z,65.14
2022-09-15T00:31:27.415Z,65.36
2022-09-15T00:33:57.517Z,65.00
2022-09-15T00:36:26.019Z,65.58
2022-09-15T00:38:53.044Z,65.66
2022-09-15T00:41:21.187Z,65.71
2022-09-15T00:46:38.738Z,65.66
2022-09-15T00:49:09.549Z,66.29
2022-09-15T00:51:43.178Z,66.11
2022-09-15T00:54:14.605Z,65.98
2022-09-15T00:56:43.490Z,66.39
2022-09-15T00:59:15.325Z,66.42
2022-09-15T01:01:44.254Z,67.12
2022-09-15T01:04:11.022Z,66.65
2022-09-15T01:06:43.459Z,66.53
2022-09-15T01:11:45.658Z,67.10
2022-09-15T01:14:12.234Z,66.70
2022-09-15T01:43:35.523Z,67.66
2022-09-15T01:46:03.995Z,68.27
2022-09-15T01:48:33.611Z,68.09
2022-09-15T01:51:03.583Z,67.57
2022-09-15T01:53:30.336Z,67.99
2022-09-15T01:56:05.112Z,68.23
2022-09-15T01:58:33.470Z,68.47
2022-09-15T02:01:08.821Z,68.57
2022-09-15T02:09:02.932Z,68.58
2022-09-15T02:11:30.438Z,68.92
2022-09-15T02:14:20.872Z,68.94
2022-09-15T02:16:52.734Z,68.82
2022-09-15T02:19:31.278Z,68.94
2022-09-15T02:22:07.764Z,68.79
2022-09-15T02:24:41.057Z,69.61
2022-09-15T02:27:12.279Z,69.05
2022-09-15T02:29:40.114Z,69.12
2022-09-15T02:32:08.613Z,69.23
2022-09-15T02:34:41.227Z,69.32
2022-09-15T02:37:09.715Z,69.44
2022-09-15T02:39:43.165Z,69.25
2022-09-15T02:42:10.362Z,69.32
2022-09-15T02:44:37.115Z,69.61
2022-09-15T02:47:04.014Z,69.82
2022-09-15T02:49:30.634Z,69.33
2022-09-15T02:51:57.216Z,70.05
2022-09-15T02:54:23.769Z,69.93
2022-09-15T02:56:50.462Z,69.79
2022-09-15T02:59:16.971Z,70.12
2022-09-15T03:01:45.011Z,69.79
2022-09-15T03:04:11.650Z,69.62
2022-09-15T03:06:38.207Z,69.73
2022-09-15T03:09:07.696Z,69.59
2022-09-15T03:11:35.411Z,70.04
2022-09-15T03:14:04.916Z,70.07
2022-09-15T03:16:34.465Z,70.25
2022-09-15T03:19:01.335Z,69.91
2022-09-15T03:21:29.621Z,70.28
2022-09-15T03:23:57.999Z,70.20
2022-09-15T03:26:25.106Z,70.36
2022-09-15T03:28:51.755Z,70.15
2022-09-15T03:31:19.950Z,70.35
2022-09-15T03:33:47.412Z,70.62
2022-09-15T03:36:14.182Z,70.40
2022-09-15T03:38:40.817Z,70.18
2022-09-15T03:41:10.914Z,69.96
2022-09-15T03:43:38.363Z,70.18
2022-09-15T03:46:07.230Z,70.14
2022-09-15T03:48:35.535Z,70.38
2022-09-15T03:51:03.995Z,70.20
2022-09-15T03:53:35.457Z,70.84
2022-09-15T03:58:45.592Z,70.74
2022-09-15T04:01:12.646Z,70.36
2022-09-15T04:03:45.221Z,70.47
2022-09-15T04:06:13.633Z,70.69
2022-09-15T04:08:40.152Z,70.46
2022-09-15T04:11:08.609Z,70.64
2022-09-15T04:13:37.024Z,70.50
2022-09-15T04:16:10.643Z,70.68
2022-09-15T04:18:37.623Z,70.34
2022-09-15T04:21:06.870Z,70.49
2022-09-15T04:23:34.160Z,70.66
2022-09-15T04:26:03.990Z,70.27
2022-09-15T04:28:32.512Z,71.28
2022-09-15T04:31:10.115Z,70.42
2022-09-15T04:33:37.978Z,70.30
2022-09-15T04:36:07.745Z,70.40
2022-09-15T04:38:35.387Z,70.74
2022-09-15T04:41:02.911Z,70.59
2022-09-15T04:43:30.377Z,70.14
2022-09-15T04:45:56.954Z,70.24
2022-09-15T04:48:23.609Z,70.55
2022-09-15T04:50:50.288Z,69.88
2022-09-15T04:53:17.079Z,69.53
2022-09-15T04:55:43.797Z,70.54
2022-09-15T04:58:10.979Z,69.80
2022-09-15T05:00:43.549Z,69.73
2022-09-15T05:03:11.467Z,70.45
2022-09-15T05:05:38.542Z,70.08
2022-09-15T05:08:05.367Z,70.23
2022-09-15T05:10:33.124Z,69.74
2022-09-15T05:13:00.045Z,70.06
2022-09-15T05:15:26.679Z,70.17
2022-09-15T05:17:53.213Z,69.93
2022-09-15T05:20:20.108Z,69.49
2022-09-15T05:22:46.693Z,70.07
2022-09-15T05:25:13.236Z,69.69
2022-09-15T05:27:39.780Z,70.03
2022-09-15T05:30:34.831Z,70.13
2022-09-15T05:32:54.095Z,69.95
2022-09-15T05:35:20.660Z,69.86
2022-09-15T05:37:47.269Z,69.67
2022-09-15T05:40:14.017Z,69.99
2022-09-15T05:42:43.856Z,69.57
2022-09-15T05:45:10.857Z,69.27
2022-09-15T05:47:37.394Z,69.28
2022-09-15T05:50:04.027Z,69.79
2022-09-15T05:52:30.525Z,69.33
2022-09-15T05:54:59.112Z,69.59
2022-09-15T05:57:25.965Z,69.65
2022-09-15T05:59:52.530Z,69.59
2022-09-15T06:02:19.196Z,69.73
2022-09-15T06:04:45.830Z,69.30
2022-09-15T06:07:12.569Z,69.07
2022-09-15T06:09:39.490Z,69.41
2022-09-15T06:12:06.177Z,69.11
2022-09-15T06:14:32.716Z,69.01
2022-09-15T06:16:59.228Z,68.83
2022-09-15T06:19:25.823Z,68.61
2022-09-15T06:21:53.083Z,68.89
2022-09-15T06:24:19.722Z,69.03
2022-09-15T06:26:46.298Z,69.21
2022-09-15T06:29:13.433Z,68.20
2022-09-15T06:31:40.559Z,68.77
2022-09-15T06:34:08.628Z,69.01
2022-09-15T06:36:36.815Z,68.42
2022-09-15T06:39:03.590Z,68.29
2022-09-15T06:41:42.634Z,68.18
2022-09-15T06:44:17.619Z,67.85
2022-09-15T06:46:44.152Z,68.72
2022-09-15T06:49:10.727Z,68.42
2022-09-15T06:52:30.480Z,68.48
2022-09-15T06:54:57.365Z,67.63
2022-09-15T06:57:23.911Z,67.90
2022-09-15T06:59:50.436Z,67.51
2022-09-15T07:02:17.090Z,67.93
2022-09-15T07:04:44.199Z,67.59
2022-09-15T07:07:10.812Z,67.65
2022-09-15T07:09:41.049Z,67.42
2022-09-15T07:12:08.177Z,66.90
2022-09-15T07:14:34.697Z,66.74
2022-09-15T07:17:01.337Z,67.25
2022-09-15T07:19:27.931Z,66.95
2022-09-15T07:21:54.539Z,67.07
2022-09-15T07:24:21.296Z,67.28
2022-09-15T07:26:47.896Z,66.99
2022-09-15T07:29:14.444Z,66.59
2022-09-15T07:31:41.260Z,66.00
2022-09-15T07:34:08.285Z,65.98
2022-09-15T07:36:35.479Z,66.71
2022-09-15T07:39:03.179Z,66.07
2022-09-15T07:41:31.052Z,66.09
2022-09-15T07:43:59.455Z,65.88
2022-09-15T07:46:27.672Z,65.76
2022-09-15T07:48:56.586Z,64.82
2022-09-15T07:51:24.006Z,64.78
2022-09-15T07:53:51.820Z,64.53
2022-09-15T07:56:19.095Z,64.56
2022-09-15T07:58:47.251Z,64.44
2022-09-15T08:01:15.236Z,64.07
2022-09-15T08:03:43.358Z,64.24
2022-09-15T08:06:10.652Z,63.83
2022-09-15T08:08:38.890Z,63.68
2022-09-15T08:11:08.588Z,63.98
2022-09-15T08:13:36.086Z,63.36
2022-09-15T08:16:12.641Z,63.20
2022-09-15T08:18:42.006Z,62.97
2022-09-15T08:21:12.668Z,62.41
2022-09-15T08:23:40.274Z,61.66
2022-09-15T08:26:13.886Z,61.74
2022-09-15T08:28:42.043Z,61.32
2022-09-15T08:31:11.423Z,61.71
2022-09-15T08:33:41.952Z,60.94
2022-09-15T08:36:12.221Z,60.69
2022-09-15T08:38:40.705Z,60.53
2022-09-15T08:41:13.614Z,60.02
2022-09-15T08:43:46.655Z,60.33
2022-09-15T08:46:19.281Z,60.08
2022-09-15T08:48:54.716Z,60.15
2022-09-15T08:51:29.278Z,59.60
2022-09-15T08:54:03.243Z,59.70
2022-09-15T08:56:30.642Z,60.53
2022-09-15T08:58:57.294Z,60.24
2022-09-15T09:07:17.563Z,60.81
2022-09-15T09:18:14.230Z,60.87
2022-09-15T09:26:02.406Z,59.53
2022-09-15T09:36:20.019Z,57.00
2022-09-15T09:38:49.099Z,57.01
2022-09-15T09:41:22.259Z,56.97
2022-09-15T09:43:50.018Z,56.67
2022-09-15T09:46:18.967Z,55.30
2022-09-15T09:48:52.614Z,55.49
2022-09-15T09:51:40.786Z,55.61
2022-09-15T10:17:55.270Z,56.18
2022-09-15T10:25:58.500Z,55.57
2022-09-15T10:28:26.504Z,55.72
2022-09-15T10:49:52.378Z,53.85
2022-09-15T11:10:31.183Z,53.79
2022-09-15T11:13:08.633Z,53.05
2022-09-15T11:24:36.763Z,51.97
2022-09-15T11:30:01.158Z,52.79
2022-09-15T11:35:31.199Z,51.00
2022-09-15T11:40:50.654Z,49.84
2022-09-15T11:45:57.999Z,49.80
2022-09-15T11:48:34.605Z,50.39
2022-09-15T11:51:03.332Z,49.99
2022-09-15T11:53:38.085Z,49.85
2022-09-15T11:58:59.434Z,48.85
2022-09-15T12:01:34.059Z,49.36
2022-09-15T12:04:05.533Z,48.42
2022-09-15T12:09:20.994Z,48.73
2022-09-15T12:11:53.745Z,48.29
2022-09-15T12:17:07.965Z,48.34
2022-09-15T12:22:49.314Z,48.47
2022-09-15T12:25:22.005Z,46.84
2022-09-15T12:31:25.905Z,44.53
2022-09-15T12:34:32.301Z,45.98
2022-09-15T12:37:15.172Z,45.78
2022-09-15T12:39:44.877Z,46.98
2022-09-15T12:47:49.115Z,47.15
2022-09-15T12:52:57.921Z,47.34
2022-09-15T12:55:29.521Z,47.63
2022-09-15T12:58:00.241Z,47.73
2022-09-15T13:00:30.007Z,48.14
2022-09-15T13:02:57.582Z,48.18
2022-09-15T13:13:45.425Z,47.00
2022-09-15T13:16:20.489Z,47.19
2022-09-15T13:18:50.487Z,47.12
2022-09-15T13:21:22.959Z,46.79
2022-09-15T13:23:52.949Z,47.13
2022-09-15T13:26:24.113Z,46.86
2022-09-15T13:28:55.617Z,46.78
2022-09-15T13:31:49.706Z,46.84
2022-09-15T13:50:46.463Z,46.54
2022-09-15T13:55:57.355Z,44.72
2022-09-15T14:01:14.381Z,45.62
2022-09-15T14:03:46.958Z,45.71
2022-09-15T14:06:17.886Z,45.94
2022-09-15T14:08:48.897Z,45.64
2022-09-15T14:11:21.523Z,45.77
2022-09-15T14:13:50.570Z,45.39
2022-09-15T14:16:34.005Z,45.34
2022-09-15T14:19:03.880Z,45.54
2022-09-15T14:21:33.639Z,45.45
2022-09-15T14:24:06.035Z,44.91
2022-09-15T14:26:35.686Z,44.45
2022-09-15T14:29:06.241Z,44.54
2022-09-15T14:31:39.063Z,44.60
2022-09-15T14:34:14.933Z,44.87
2022-09-15T14:36:42.007Z,44.88
2022-09-15T14:41:48.955Z,44.76
2022-09-15T14:47:28.643Z,44.93
2022-09-15T14:52:51.878Z,44.81
2022-09-15T14:58:14.148Z,44.50
2022-09-15T15:00:51.832Z,44.46
2022-09-15T15:03:44.595Z,45.34
2022-09-15T15:06:33.321Z,44.67
2022-09-15T15:09:09.859Z,44.25
2022-09-15T15:11:38.404Z,44.59
2022-09-15T15:14:08.697Z,44.88
2022-09-15T15:16:35.749Z,44.49
2022-09-15T15:19:02.749Z,44.31
2022-09-15T15:21:40.993Z,44.43
2022-09-15T15:24:10.109Z,44.32
2022-09-15T15:26:40.706Z,44.23
2022-09-15T15:29:28.925Z,44.04
2022-09-15T15:32:05.468Z,44.76
2022-09-15T15:34:32.079Z,44.81
2022-09-15T15:37:04.087Z,44.53
2022-09-15T15:39:30.919Z,44.41
2022-09-15T15:42:04.328Z,44.52
2022-09-15T15:44:32.186Z,44.58
2022-09-15T15:49:39.134Z,44.74
2022-09-15T15:52:09.048Z,45.20
2022-09-15T15:54:35.603Z,44.42
2022-09-15T15:57:21.694Z,45.48
2022-09-15T15:59:48.267Z,45.60
2022-09-15T16:02:14.864Z,45.53
2022-09-15T16:04:41.448Z,45.30
2022-09-15T16:07:16.696Z,45.87
2022-09-15T16:09:44.017Z,46.05
2022-09-15T16:12:10.619Z,45.65
2022-09-15T16:14:37.150Z,45.88
2022-09-15T16:17:03.707Z,45.48
2022-09-15T16:19:30.325Z,45.37
2022-09-15T16:21:56.930Z,46.20
2022-09-15T16:24:24.773Z,45.93
2022-09-15T16:26:53.821Z,45.94
2022-09-15T16:29:26.086Z,46.50
2022-09-15T16:31:52.981Z,45.98
2022-09-15T16:34:19.630Z,45.72
2022-09-15T16:36:46.315Z,46.13
2022-09-15T16:39:12.804Z,46.68
2022-09-15T16:41:40.365Z,46.12
2022-09-15T16:44:17.604Z,46.01
2022-09-15T16:46:44.229Z,46.62
2022-09-15T16:49:10.833Z,46.81
2022-09-15T16:51:37.387Z,46.35
2022-09-15T16:54:14.135Z,46.61
2022-09-15T16:56:41.431Z,46.84
2022-09-15T16:59:08.149Z,46.64
2022-09-15T17:01:34.754Z,46.84
2022-09-15T17:04:02.158Z,46.60
2022-09-15T17:06:29.080Z,46.98
2022-09-15T17:08:56.713Z,46.97
2022-09-15T17:11:25.475Z,46.80
2022-09-15T17:13:52.056Z,46.26
2022-09-15T17:16:19.747Z,46.54
2022-09-15T17:18:46.954Z,46.24
2022-09-15T17:21:14.954Z,46.45
2022-09-15T17:23:45.108Z,46.03
2022-09-15T17:26:14.416Z,46.52
2022-09-15T17:28:42.247Z,46.27
2022-09-15T17:31:14.904Z,46.61
2022-09-15T17:33:41.519Z,47.01
2022-09-15T17:36:08.514Z,47.12
2022-09-15T17:38:35.184Z,47.09
2022-09-15T17:41:01.771Z,47.03
2022-09-15T17:43:30.654Z,46.80
2022-09-15T17:45:58.007Z,47.19
2022-09-15T17:48:25.232Z,47.73
2022-09-15T17:50:52.665Z,46.82
2022-09-15T17:53:22.682Z,47.41
2022-09-15T17:55:50.685Z,48.47
2022-09-15T17:58:17.848Z,47.59
2022-09-15T18:00:45.885Z,48.08
2022-09-15T18:03:34.687Z,48.23
2022-09-15T18:06:05.300Z,48.38
2022-09-15T18:08:33.245Z,48.03
2022-09-15T18:11:00.991Z,48.50
2022-09-15T18:13:29.761Z,48.73
2022-09-15T18:15:57.292Z,48.61
2022-09-15T18:18:26.637Z,48.42
2022-09-15T18:20:57.882Z,49.07
2022-09-15T18:23:26.972Z,49.32
2022-09-15T18:25:53.526Z,49.58
2022-09-15T18:28:20.518Z,49.44
2022-09-15T18:30:49.171Z,49.68
2022-09-15T18:33:18.024Z,49.77
2022-09-15T18:35:44.628Z,49.63
2022-09-15T18:38:11.986Z,49.66
2022-09-15T18:40:39.124Z,50.47
2022-09-15T18:43:05.837Z,49.52
2022-09-15T18:45:32.534Z,50.14
2022-09-15T18:47:59.216Z,49.76
2022-09-15T18:50:25.766Z,50.41
2022-09-15T18:52:53.053Z,50.69
2022-09-15T18:55:21.919Z,50.36
2022-09-15T18:57:49.352Z,50.18
2022-09-15T19:00:19.433Z,50.71
2022-09-15T19:02:47.235Z,50.34
2022-09-15T19:05:15.772Z,50.07
2022-09-15T19:07:43.604Z,50.70
2022-09-15T19:10:12.063Z,51.02
2022-09-15T19:12:39.320Z,50.63
2022-09-15T19:15:12.044Z,50.91
2022-09-15T19:17:39.460Z,51.35
2022-09-15T19:20:08.565Z,50.95
2022-09-15T19:22:35.907Z,51.05
2022-09-15T19:25:03.242Z,51.16
2022-09-15T19:27:29.913Z,51.01
2022-09-15T19:29:56.565Z,51.09
2022-09-15T19:32:23.469Z,51.34
2022-09-15T19:34:50.261Z,51.56
2022-09-15T19:37:19.720Z,51.49
2022-09-15T19:39:47.579Z,51.40
2022-09-15T19:44:42.358Z,51.77
2022-09-15T19:47:09.508Z,52.27
2022-09-15T19:49:36.078Z,51.99
2022-09-15T19:52:02.913Z,52.30
2022-09-15T19:54:30.353Z,52.08
2022-09-15T19:56:57.232Z,52.13
2022-09-15T19:59:28.736Z,52.56
2022-09-15T20:01:57.661Z,52.29
2022-09-15T20:07:08.812Z,52.72
2022-09-15T20:09:35.750Z,52.74
2022-09-15T20:12:03.400Z,52.86
2022-09-15T20:14:30.942Z,52.83
2022-09-15T20:17:00.377Z,52.87
2022-09-15T20:19:27.881Z,53.34
2022-09-15T20:21:54.390Z,53.50
2022-09-15T20:24:22.246Z,52.92
2022-09-15T20:26:49.285Z,53.59
2022-09-15T20:29:16.255Z,53.95
2022-09-15T20:31:42.763Z,53.94
2022-09-15T20:34:09.316Z,53.89
2022-09-15T20:36:38.810Z,53.37
2022-09-15T20:39:09.362Z,53.71
2022-09-15T20:41:36.158Z,53.52
2022-09-15T20:44:03.001Z,54.03
2022-09-15T20:46:31.276Z,53.73
2022-09-15T20:48:57.828Z,53.74
2022-09-15T20:51:27.826Z,54.55
2022-09-15T20:53:56.154Z,54.51
2022-09-15T20:56:25.627Z,55.24
2022-09-15T20:58:54.873Z,54.05
2022-09-15T21:01:24.220Z,54.01
2022-09-15T21:03:51.553Z,54.49
2022-09-15T21:06:20.484Z,55.48
2022-09-15T21:08:48.568Z,55.53
2022-09-15T21:11:17.024Z,55.12
2022-09-15T21:13:44.158Z,55.46
2022-09-15T21:16:14.155Z,55.92
2022-09-15T21:18:42.537Z,55.62
2022-09-15T21:21:13.195Z,56.00
2022-09-15T21:23:42.858Z,55.35
2022-09-15T21:26:12.702Z,55.77
2022-09-15T21:28:39.716Z,54.98
2022-09-15T21:31:09.089Z,55.47
2022-09-15T21:33:36.817Z,55.85
2022-09-15T21:36:24.625Z,55.99
2022-09-15T21:38:52.975Z,55.95
2022-09-15T21:41:21.494Z,55.47
2022-09-15T21:43:49.363Z,56.89
2022-09-15T21:46:18.894Z,56.02
2022-09-15T21:48:47.361Z,55.89
2022-09-15T21:51:19.677Z,55.84
2022-09-15T21:53:50.438Z,56.62
2022-09-15T21:56:17.011Z,57.00
2022-09-15T21:58:44.274Z,57.30
2022-09-15T22:03:51.490Z,57.31
2022-09-15T22:06:20.140Z,57.11
2022-09-15T22:08:47.073Z,56.71
2022-09-15T22:11:14.425Z,58.00
2022-09-15T22:13:43.658Z,57.33
2022-09-15T22:16:14.352Z,57.27
2022-09-15T22:18:41.871Z,57.42
2022-09-15T22:23:46.260Z,57.21
2022-09-15T22:26:16.335Z,57.65
2022-09-15T22:28:43.249Z,57.41
2022-09-15T22:31:12.930Z,58.26
2022-09-15T22:33:41.273Z,58.31
2022-09-15T22:38:48.639Z,57.71
2022-09-15T22:41:17.620Z,58.07
2022-09-15T22:43:47.882Z,59.12
2022-09-15T22:46:16.326Z,58.29
2022-09-15T22:48:43.703Z,59.28
2022-09-15T22:51:11.547Z,59.33
2022-09-15T22:53:38.559Z,59.54
2022-09-15T22:58:43.933Z,60.03
2022-09-15T23:01:14.555Z,59.97
2022-09-15T23:03:41.979Z,60.32
2022-09-15T23:06:08.819Z,59.27
2022-09-15T23:08:36.571Z,59.83
2022-09-15T23:13:41.268Z,61.01
2022-09-15T23:16:08.956Z,61.26
2022-09-15T23:18:35.781Z,61.47
2022-09-15T23:21:07.412Z,61.50
2022-09-15T23:23:35.870Z,61.56
2022-09-15T23:26:04.343Z,61.44
2022-09-15T23:28:31.707Z,60.65
2022-09-15T23:30:59.766Z,61.95
2022-09-15T23:33:28.208Z,61.89
2022-09-15T23:35:55.424Z,61.03
2022-09-15T23:38:22.107Z,62.35
2022-09-15T23:40:50.555Z,61.87
2022-09-15T23:43:17.937Z,62.67
2022-09-15T23:45:45.430Z,61.70
2022-09-15T23:48:12.459Z,62.82
2022-09-15T23:50:40.130Z,63.28
2022-09-15T23:53:07.058Z,63.14
2022-09-15T23:55:33.681Z,62.45
2022-09-15T23:58:00.424Z,63.43
